createdAt,value
2023-02-14T00:02:01.084Z,100.00
2023-02-14T00:04:34.730Z,100.00
2023-02-14T00:07:07.834Z,100.00
2023-02-14T00:09:40.927Z,100.00
2023-02-14T00:12:14.010Z,100.00
2023-02-14T00:15:04.536Z,100.00
2023-02-14T00:17:38.945Z,100.00
2023-02-14T00:20:12.830Z,100.00
2023-02-14T00:22:46.041Z,100.00
2023-02-14T00:25:19.499Z,100.00
2023-02-14T00:27:54.374Z,100.00
2023-02-14T00:30:27.611Z,100.00
2023-02-14T00:33:02.114Z,100.00
2023-02-14T00:35:39.309Z,100.00
2023-02-14T00:38:12.363Z,100.00
2023-02-14T00:40:45.421Z,100.00
2023-02-14T00:43:18.500Z,100.00
2023-02-14T00:45:51.857Z,100.00
2023-02-14T00:48:26.486Z,100.00
2023-02-14T00:50:59.922Z,100.00
2023-02-14T00:53:33.198Z,100.00
2023-02-14T00:56:07.121Z,100.00
2023-02-14T00:58:40.258Z,100.00
2023-02-14T01:01:14.757Z,100.00
2023-02-14T01:03:49.528Z,100.00
2023-02-14T01:06:22.605Z,100.00
2023-02-14T01:08:55.838Z,100.00
2023-02-14T01:11:30.326Z,100.00
2023-02-14T01:14:03.856Z,100.00
2023-02-14T01:16:37.649Z,100.00
2023-02-14T01:19:12.098Z,100.00
2023-02-14T01:21:45.241Z,100.00
2023-02-14T01:24:18.316Z,100.00
2023-02-14T01:26:51.351Z,100.00
2023-02-14T01:29:24.717Z,100.00
2023-02-14T01:31:57.955Z,100.00
2023-02-14T01:34:32.677Z,100.00
2023-02-14T01:37:05.820Z,100.00
2023-02-14T01:39:39.107Z,100.00
2023-02-14T01:42:12.683Z,100.00
2023-02-14T01:45:10.082Z,100.00
2023-02-14T01:47:46.055Z,100.00
2023-02-14T01:50:24.843Z,100.00
2023-02-14T01:53:03.677Z,100.00
2023-02-14T01:55:40.976Z,100.00
2023-02-14T01:58:19.343Z,100.00
2023-02-14T02:00:59.179Z,100.00
2023-02-14T02:03:36.561Z,100.00
2023-02-14T02:06:16.079Z,100.00
2023-02-14T02:09:06.131Z,100.00
2023-02-14T02:11:39.331Z,100.00
2023-02-14T02:14:17.907Z,100.00
2023-02-14T02:17:17.992Z,100.00
2023-02-14T02:20:34.977Z,100.00
2023-02-14T02:23:54.438Z,100.00
2023-02-14T02:27:08.804Z,100.00
2023-02-14T02:30:37.514Z,100.00
2023-02-14T02:34:05.663Z,100.00
2023-02-14T02:37:03.446Z,100.00
2023-02-14T02:39:51.121Z,100.00
2023-02-14T02:42:35.818Z,100.00
2023-02-14T02:45:15.130Z,100.00
2023-02-14T02:48:00.901Z,100.00
2023-02-14T02:51:02.588Z,100.00
2023-02-14T02:53:44.003Z,100.00
2023-02-14T02:56:41.718Z,100.00
2023-02-14T02:59:20.585Z,100.00
2023-02-14T03:02:00.673Z,100.00
2023-02-14T03:04:52.740Z,100.00
2023-02-14T03:07:39.083Z,100.00
2023-02-14T03:10:19.064Z,100.00
2023-02-14T03:13:32.464Z,100.00
2023-02-14T03:16:32.953Z,100.00
2023-02-14T03:19:58.876Z,100.00
2023-02-14T03:22:46.375Z,100.00
2023-02-14T03:25:33.308Z,100.00
2023-02-14T03:28:18.307Z,100.00
2023-02-14T03:31:02.807Z,100.00
2023-02-14T03:33:45.466Z,100.00
2023-02-14T03:36:24.627Z,100.00
2023-02-14T03:39:04.063Z,100.00
2023-02-14T03:41:44.995Z,100.00
2023-02-14T03:44:22.503Z,100.00
2023-02-14T03:47:00.216Z,100.00
2023-02-14T03:49:38.445Z,100.00
2023-02-14T03:52:13.836Z,100.00
2023-02-14T03:54:48.993Z,100.00
2023-02-14T03:57:28.367Z,100.00
2023-02-14T04:00:01.630Z,100.00
2023-02-14T04:02:40.412Z,100.00
2023-02-14T04:05:18.582Z,100.00
2023-02-14T04:07:54.778Z,100.00
2023-02-14T04:10:28.309Z,100.00
2023-02-14T04:13:02.846Z,100.00
2023-02-14T04:15:36.001Z,100.00
2023-02-14T04:18:27.601Z,100.00
2023-02-14T04:21:01.007Z,100.00
2023-02-14T04:23:34.261Z,100.00
2023-02-14T04:26:07.497Z,100.00
2023-02-14T04:28:41.935Z,100.00
2023-02-14T04:31:15.124Z,100.00
2023-02-14T04:33:48.218Z,100.00
2023-02-14T04:36:21.277Z,100.00
2023-02-14T04:38:54.292Z,100.00
2023-02-14T04:41:27.465Z,100.00
2023-02-14T04:44:01.846Z,100.00
2023-02-14T04:46:34.906Z,100.00
2023-02-14T04:49:07.991Z,100.00
2023-02-14T04:51:41.236Z,100.00
2023-02-14T04:54:14.299Z,100.00
2023-02-14T04:56:47.306Z,100.00
2023-02-14T04:59:24.668Z,100.00
2023-02-14T05:01:58.054Z,100.00
2023-02-14T05:04:31.103Z,100.00
2023-02-14T05:07:05.048Z,100.00
2023-02-14T05:09:38.062Z,100.00
2023-02-14T05:12:11.214Z,100.00
2023-02-14T05:14:45.648Z,100.00
2023-02-14T05:17:18.817Z,100.00
2023-02-14T05:19:51.939Z,100.00
2023-02-14T05:22:25.033Z,100.00
2023-02-14T05:24:58.136Z,100.00
2023-02-14T05:27:31.271Z,100.00
2023-02-14T05:30:07.126Z,100.00
2023-02-14T05:32:40.261Z,100.00
2023-02-14T05:35:13.283Z,100.00
2023-02-14T05:37:46.388Z,100.00
2023-02-14T05:40:19.722Z,100.00
2023-02-14T05:42:53.435Z,100.00
2023-02-14T05:45:28.178Z,100.00
2023-02-14T05:48:01.733Z,100.00
2023-02-14T05:50:35.020Z,100.00
2023-02-14T05:53:08.084Z,100.00
2023-02-14T05:55:41.294Z,100.00
2023-02-14T05:58:14.494Z,100.00
2023-02-14T06:00:48.950Z,100.00
2023-02-14T06:03:21.957Z,100.00
2023-02-14T06:05:55.184Z,100.00
2023-02-14T06:08:28.265Z,100.00
2023-02-14T06:11:01.604Z,100.00
2023-02-14T06:13:34.776Z,100.00
2023-02-14T06:16:09.643Z,100.00
2023-02-14T06:18:42.694Z,100.00
2023-02-14T06:21:15.750Z,100.00
2023-02-14T06:23:48.720Z,100.00
2023-02-14T06:26:21.777Z,100.00
2023-02-14T06:28:55.498Z,100.00
2023-02-14T06:31:30.386Z,100.00
2023-02-14T06:34:03.443Z,100.00
2023-02-14T06:36:36.496Z,100.00
2023-02-14T06:39:09.580Z,100.00
2023-02-14T06:41:42.628Z,100.00
2023-02-14T06:44:15.710Z,100.00
2023-02-14T06:46:50.284Z,100.00
2023-02-14T06:49:23.942Z,100.00
2023-02-14T06:51:57.185Z,100.00
2023-02-14T06:54:30.376Z,100.00
2023-02-14T06:57:03.706Z,100.00
2023-02-14T06:59:36.904Z,100.00
2023-02-14T07:02:12.384Z,100.00
2023-02-14T07:04:45.583Z,100.00
2023-02-14T07:07:18.590Z,100.00
2023-02-14T07:09:51.685Z,100.00
2023-02-14T07:12:24.736Z,100.00
2023-02-14T07:14:57.816Z,100.00
2023-02-14T07:17:32.254Z,100.00
2023-02-14T07:20:06.993Z,100.00
2023-02-14T07:22:40.760Z,100.00
2023-02-14T07:25:14.590Z,100.00
2023-02-14T07:27:47.687Z,100.00
2023-02-14T07:30:21.186Z,100.00
2023-02-14T07:32:55.676Z,99.19
2023-02-14T07:35:28.724Z,99.12
2023-02-14T07:38:01.817Z,97.92
2023-02-14T07:40:35.080Z,97.86
2023-02-14T07:43:08.205Z,97.64
2023-02-14T07:45:41.288Z,97.53
2023-02-14T07:48:15.790Z,96.73
2023-02-14T07:50:49.718Z,96.08
2023-02-14T07:53:22.749Z,94.39
2023-02-14T07:55:55.805Z,93.51
2023-02-14T07:58:28.860Z,91.55
2023-02-14T08:01:02.190Z,92.18
2023-02-14T08:03:36.823Z,90.47
2023-02-14T08:06:09.994Z,90.45
2023-02-14T08:08:43.235Z,90.52
2023-02-14T08:11:36.258Z,89.73
2023-02-14T08:14:09.347Z,90.63
2023-02-14T08:16:42.406Z,89.72
2023-02-14T08:19:16.839Z,87.96
2023-02-14T08:21:49.977Z,89.24
2023-02-14T08:24:22.994Z,88.87
2023-02-14T08:26:56.056Z,88.54
2023-02-14T08:29:29.162Z,90.55
2023-02-14T08:32:02.383Z,87.89
2023-02-14T08:34:36.965Z,87.11
2023-02-14T08:37:09.958Z,86.82
2023-02-14T08:39:43.626Z,88.37
2023-02-14T08:42:16.826Z,88.13
2023-02-14T08:44:49.906Z,87.62
2023-02-14T08:47:23.030Z,86.84
2023-02-14T08:49:57.402Z,83.57
2023-02-14T08:52:30.550Z,83.57
2023-02-14T08:55:05.025Z,84.11
2023-02-14T08:57:38.088Z,83.97
2023-02-14T09:00:12.323Z,82.67
2023-02-14T09:02:45.560Z,82.06
2023-02-14T09:05:21.271Z,81.24
2023-02-14T09:07:56.250Z,78.92
2023-02-14T09:10:29.405Z,80.59
2023-02-14T09:13:02.568Z,81.07
2023-02-14T09:15:35.970Z,81.00
2023-02-14T09:18:09.083Z,79.85
2023-02-14T09:20:45.395Z,79.66
2023-02-14T09:23:18.533Z,78.63
2023-02-14T09:25:51.913Z,78.28
2023-02-14T09:28:25.010Z,77.61
2023-02-14T09:30:58.885Z,78.39
2023-02-14T09:33:49.744Z,78.78
2023-02-14T09:36:41.849Z,76.74
2023-02-14T09:39:14.962Z,77.43
2023-02-14T09:42:14.983Z,75.40
2023-02-14T09:44:52.507Z,75.40
2023-02-14T09:47:36.449Z,75.18
2023-02-14T09:50:20.602Z,76.30
2023-02-14T09:52:59.390Z,75.84
2023-02-14T09:55:41.187Z,75.26
2023-02-14T09:58:22.982Z,76.45
2023-02-14T10:01:04.256Z,74.43
2023-02-14T10:03:54.008Z,74.26
2023-02-14T10:06:48.878Z,75.65
2023-02-14T10:09:47.607Z,74.54
2023-02-14T10:12:27.760Z,74.58
2023-02-14T10:15:05.622Z,73.34
2023-02-14T10:17:43.124Z,73.13
2023-02-14T10:20:26.611Z,73.65
2023-02-14T10:23:06.841Z,72.23
2023-02-14T10:25:47.219Z,71.72
2023-02-14T10:28:28.152Z,71.62
2023-02-14T10:31:19.353Z,71.81
2023-02-14T10:33:57.873Z,70.50
2023-02-14T10:36:52.433Z,71.10
2023-02-14T10:39:50.712Z,70.18
2023-02-14T10:42:35.105Z,70.31
2023-02-14T10:45:24.239Z,71.73
2023-02-14T10:48:08.284Z,69.69
2023-02-14T10:50:51.768Z,67.78
2023-02-14T10:53:35.405Z,67.33
2023-02-14T10:56:13.928Z,68.38
2023-02-14T10:58:51.721Z,68.54
2023-02-14T11:01:25.796Z,68.65
2023-02-14T11:04:04.219Z,67.61
2023-02-14T11:06:37.412Z,69.49
2023-02-14T11:09:12.134Z,69.57
2023-02-14T11:11:50.169Z,68.13
2023-02-14T11:14:29.138Z,68.67
2023-02-14T11:17:29.177Z,66.87
2023-02-14T11:20:07.315Z,65.37
2023-02-14T11:22:40.413Z,67.33
2023-02-14T11:25:21.875Z,66.27
2023-02-14T11:28:01.503Z,65.72
2023-02-14T11:30:41.355Z,65.21
2023-02-14T11:33:25.170Z,66.45
2023-02-14T11:35:58.982Z,65.86
2023-02-14T11:38:36.267Z,66.22
2023-02-14T11:41:12.915Z,65.08
2023-02-14T11:43:49.152Z,64.69
2023-02-14T11:46:53.139Z,64.17
2023-02-14T11:49:31.009Z,63.15
2023-02-14T11:52:15.815Z,62.30
2023-02-14T11:54:50.236Z,62.34
2023-02-14T11:57:28.335Z,61.42
2023-02-14T12:00:04.760Z,63.00
2023-02-14T12:02:42.417Z,62.68
2023-02-14T12:05:21.661Z,63.13
2023-02-14T12:07:57.617Z,61.42
2023-02-14T12:10:31.697Z,61.13
2023-02-14T12:13:26.854Z,62.10
2023-02-14T12:16:01.069Z,61.13
2023-02-14T12:18:49.500Z,60.90
2023-02-14T12:21:45.417Z,61.50
2023-02-14T12:24:29.072Z,59.61
2023-02-14T12:27:12.151Z,60.16
2023-02-14T12:29:50.058Z,60.17
2023-02-14T12:32:26.510Z,62.02
2023-02-14T12:35:07.624Z,61.84
2023-02-14T12:38:04.654Z,59.33
2023-02-14T12:40:50.473Z,60.60
2023-02-14T12:43:47.821Z,61.10
2023-02-14T12:46:46.683Z,60.73
2023-02-14T12:50:00.344Z,60.24
2023-02-14T12:52:49.236Z,59.87
2023-02-14T12:55:39.573Z,60.61
2023-02-14T12:58:27.182Z,60.67
2023-02-14T13:01:41.618Z,61.12
2023-02-14T13:04:32.388Z,60.66
2023-02-14T13:07:18.108Z,60.80
2023-02-14T13:09:57.382Z,57.99
2023-02-14T13:12:40.162Z,57.77
2023-02-14T13:15:23.939Z,56.71
2023-02-14T13:18:04.647Z,56.87
2023-02-14T13:20:51.305Z,56.89
2023-02-14T13:23:33.033Z,56.96
2023-02-14T13:26:13.199Z,56.67
2023-02-14T13:28:52.018Z,57.21
2023-02-14T13:31:25.691Z,57.48
2023-02-14T13:34:03.925Z,57.80
2023-02-14T13:36:38.016Z,58.39
2023-02-14T13:39:26.470Z,57.36
2023-02-14T13:41:59.853Z,57.07
2023-02-14T13:44:48.005Z,55.73
2023-02-14T13:47:22.637Z,55.57
2023-02-14T13:49:58.748Z,55.89
2023-02-14T13:52:46.954Z,56.95
2023-02-14T13:55:25.260Z,56.37
2023-02-14T13:58:04.036Z,57.01
2023-02-14T14:00:41.191Z,56.82
2023-02-14T14:03:17.134Z,56.54
2023-02-14T14:06:05.214Z,55.66
2023-02-14T14:08:48.686Z,56.02
2023-02-14T14:12:00.768Z,56.46
2023-02-14T14:14:40.029Z,56.35
2023-02-14T14:17:27.564Z,55.92
2023-02-14T14:20:02.426Z,55.26
2023-02-14T14:22:49.286Z,56.93
2023-02-14T14:25:32.435Z,56.40
2023-02-14T14:28:12.706Z,54.36
2023-02-14T14:30:46.373Z,54.32
2023-02-14T14:33:29.287Z,54.54
2023-02-14T14:36:08.200Z,54.86
2023-02-14T14:38:50.704Z,55.22
2023-02-14T14:41:31.162Z,55.66
2023-02-14T14:44:07.103Z,55.58
2023-02-14T14:46:40.248Z,54.03
2023-02-14T14:49:14.253Z,54.34
2023-02-14T14:51:47.393Z,54.89
2023-02-14T14:54:25.034Z,53.93
2023-02-14T14:57:15.605Z,54.81
2023-02-14T14:59:50.395Z,54.24
2023-02-14T15:02:30.459Z,53.99
2023-02-14T15:05:23.789Z,55.50
2023-02-14T15:07:57.779Z,55.38
2023-02-14T15:10:32.459Z,56.03
2023-02-14T15:13:23.031Z,55.66
2023-02-14T15:15:58.074Z,55.52
2023-02-14T15:18:31.259Z,55.25
2023-02-14T15:21:07.033Z,56.19
2023-02-14T15:23:40.338Z,56.68
2023-02-14T15:26:19.755Z,56.47
2023-02-14T15:28:58.790Z,56.81
2023-02-14T15:31:42.679Z,56.81
2023-02-14T15:34:16.195Z,57.49
2023-02-14T15:36:52.228Z,58.15
2023-02-14T15:39:33.433Z,59.18
2023-02-14T15:42:08.116Z,59.27
2023-02-14T15:44:41.293Z,60.09
2023-02-14T15:47:16.839Z,60.61
2023-02-14T15:49:50.173Z,60.42
2023-02-14T15:52:23.371Z,60.51
2023-02-14T15:54:56.602Z,61.54
2023-02-14T15:57:30.531Z,61.38
2023-02-14T16:00:11.264Z,62.02
2023-02-14T16:02:48.978Z,62.08
2023-02-14T16:05:24.962Z,62.34
2023-02-14T16:08:04.481Z,61.93
2023-02-14T16:10:39.153Z,62.95
2023-02-14T16:13:22.034Z,63.45
2023-02-14T16:16:00.563Z,65.12
2023-02-14T16:18:38.600Z,65.52
2023-02-14T16:21:20.152Z,66.05
2023-02-14T16:24:13.294Z,67.20
2023-02-14T16:26:47.091Z,68.34
2023-02-14T16:29:21.894Z,69.15
2023-02-14T16:32:16.314Z,69.59
2023-02-14T16:34:51.876Z,69.70
2023-02-14T16:37:29.131Z,70.78
2023-02-14T16:40:03.113Z,71.18
2023-02-14T16:42:37.033Z,71.47
2023-02-14T16:45:17.427Z,72.26
2023-02-14T16:47:51.489Z,73.11
2023-02-14T16:50:26.216Z,73.71
2023-02-14T16:53:01.119Z,74.07
2023-02-14T16:55:34.958Z,75.25
2023-02-14T16:58:08.513Z,75.64
2023-02-14T17:00:42.055Z,75.78
2023-02-14T17:03:15.170Z,76.94
2023-02-14T17:05:49.803Z,77.44
2023-02-14T17:08:22.891Z,77.98
2023-02-14T17:10:58.200Z,78.31
2023-02-14T17:13:34.988Z,78.21
2023-02-14T17:16:11.076Z,79.68
2023-02-14T17:18:48.931Z,80.19
2023-02-14T17:21:25.084Z,80.39
2023-02-14T17:23:58.561Z,81.38
2023-02-14T17:26:32.231Z,81.50
2023-02-14T17:29:06.825Z,82.47
2023-02-14T17:31:39.995Z,82.60
2023-02-14T17:34:13.284Z,83.55
2023-02-14T17:36:47.808Z,84.10
2023-02-14T17:39:21.652Z,84.32
2023-02-14T17:41:56.603Z,84.64
2023-02-14T17:44:32.364Z,85.12
2023-02-14T17:47:06.382Z,86.05
2023-02-14T17:49:39.529Z,86.07
2023-02-14T17:52:14.182Z,86.58
2023-02-14T17:54:47.279Z,87.07
2023-02-14T17:57:20.770Z,86.84
2023-02-14T17:59:53.995Z,87.10
2023-02-14T18:02:27.730Z,87.25
2023-02-14T18:05:00.887Z,87.95
2023-02-14T18:07:35.681Z,88.95
2023-02-14T18:10:09.399Z,89.44
2023-02-14T18:12:42.506Z,90.24
2023-02-14T18:15:15.582Z,90.97
2023-02-14T18:17:52.040Z,92.52
2023-02-14T18:20:25.207Z,92.43
2023-02-14T18:22:59.953Z,93.23
2023-02-14T18:25:36.045Z,92.75
2023-02-14T18:28:11.376Z,92.48
2023-02-14T18:30:44.591Z,92.95
2023-02-14T18:33:19.683Z,93.17
2023-02-14T18:35:53.858Z,93.20
2023-02-14T18:38:28.464Z,93.66
2023-02-14T18:41:03.918Z,93.38
2023-02-14T18:43:38.282Z,93.61
2023-02-14T18:46:13.745Z,92.98
2023-02-14T18:48:47.131Z,94.22
2023-02-14T18:51:23.571Z,94.14
2023-02-14T18:54:00.326Z,95.11
2023-02-14T18:56:36.969Z,94.42
2023-02-14T18:59:13.252Z,94.31
2023-02-14T19:01:47.192Z,94.33
2023-02-14T19:04:20.351Z,94.15
2023-02-14T19:06:53.705Z,94.63
2023-02-14T19:09:29.447Z,95.00
2023-02-14T19:12:02.731Z,94.76
2023-02-14T19:14:35.912Z,95.09
2023-02-14T19:17:09.093Z,95.27
2023-02-14T19:19:42.471Z,96.01
2023-02-14T19:22:16.303Z,96.17
2023-02-14T19:24:53.786Z,96.50
2023-02-14T19:27:27.083Z,95.83
2023-02-14T19:30:00.354Z,96.38
2023-02-14T19:32:33.845Z,97.00
2023-02-14T19:35:08.373Z,96.74
2023-02-14T19:37:41.461Z,97.05
2023-02-14T19:40:16.121Z,96.75
2023-02-14T19:42:50.258Z,96.53
2023-02-14T19:45:23.572Z,96.90
2023-02-14T19:47:59.339Z,97.04
2023-02-14T19:50:32.644Z,96.77
2023-02-14T19:53:06.085Z,97.44
2023-02-14T19:55:41.350Z,97.52
2023-02-14T19:58:14.540Z,96.84
2023-02-14T20:00:55.906Z,97.60
2023-02-14T20:03:30.714Z,97.51
2023-02-14T20:06:04.191Z,97.83
2023-02-14T20:08:37.303Z,99.52
2023-02-14T20:11:26.695Z,99.10
2023-02-14T20:14:00.962Z,99.58
2023-02-14T20:16:36.617Z,100.00
2023-02-14T20:19:12.782Z,100.00
2023-02-14T20:21:47.705Z,100.00
2023-02-14T20:24:23.165Z,99.83
2023-02-14T20:26:57.932Z,99.88
2023-02-14T20:29:31.913Z,99.41
2023-02-14T20:32:05.915Z,100.00
2023-02-14T20:34:39.033Z,100.00
2023-02-14T20:37:12.757Z,100.00
2023-02-14T20:39:45.907Z,100.00
2023-02-14T20:42:20.577Z,98.80
2023-02-14T20:44:53.765Z,99.39
2023-02-14T20:47:26.877Z,100.00
2023-02-14T20:49:59.998Z,100.00
2023-02-14T20:52:33.229Z,100.00
2023-02-14T20:55:07.207Z,100.00
2023-02-14T20:57:41.773Z,100.00
2023-02-14T21:00:16.604Z,100.00
2023-02-14T21:02:49.603Z,100.00
2023-02-14T21:05:22.789Z,100.00
2023-02-14T21:07:56.002Z,100.00
2023-02-14T21:10:30.313Z,100.00
2023-02-14T21:13:05.189Z,100.00
2023-02-14T21:15:38.265Z,100.00
2023-02-14T21:18:11.404Z,100.00
2023-02-14T21:20:44.561Z,100.00
2023-02-14T21:23:17.741Z,100.00
2023-02-14T21:25:50.875Z,100.00
2023-02-14T21:28:25.809Z,100.00
2023-02-14T21:31:06.158Z,100.00
2023-02-14T21:33:39.689Z,100.00
2023-02-14T21:36:15.076Z,100.00
2023-02-14T21:38:48.594Z,100.00
2023-02-14T21:41:24.568Z,100.00
2023-02-14T21:44:01.204Z,100.00
2023-02-14T21:46:36.866Z,100.00
2023-02-14T21:49:27.754Z,100.00
2023-02-14T21:52:01.944Z,100.00
2023-02-14T21:54:34.960Z,100.00
2023-02-14T21:57:07.970Z,100.00
2023-02-14T21:59:42.387Z,100.00
2023-02-14T22:02:15.453Z,100.00
2023-02-14T22:04:48.748Z,100.00
2023-02-14T22:07:21.838Z,100.00
2023-02-14T22:09:54.874Z,100.00
2023-02-14T22:12:28.004Z,100.00
2023-02-14T22:15:02.468Z,100.00
2023-02-14T22:17:35.654Z,100.00
2023-02-14T22:20:10.372Z,100.00
2023-02-14T22:22:43.384Z,100.00
2023-02-14T22:25:19.885Z,100.00
2023-02-14T22:27:52.955Z,100.00
2023-02-14T22:30:27.604Z,100.00
2023-02-14T22:33:00.741Z,100.00
2023-02-14T22:35:33.873Z,100.00
2023-02-14T22:38:06.952Z,100.00
2023-02-14T22:40:42.191Z,100.00
2023-02-14T22:43:15.380Z,100.00
2023-02-14T22:45:49.991Z,100.00
2023-02-14T22:48:23.089Z,100.00
2023-02-14T22:50:56.340Z,100.00
2023-02-14T22:53:29.478Z,100.00
2023-02-14T22:56:12.173Z,100.00
2023-02-14T22:58:46.157Z,100.00
2023-02-14T23:01:22.824Z,100.00
2023-02-14T23:03:58.099Z,100.00
2023-02-14T23:06:33.543Z,100.00
2023-02-14T23:09:13.068Z,100.00
2023-02-14T23:11:48.290Z,100.00
2023-02-14T23:14:39.391Z,100.00
2023-02-14T23:17:34.750Z,100.00
2023-02-14T23:20:27.652Z,100.00
2023-02-14T23:23:00.620Z,100.00
2023-02-14T23:25:33.641Z,100.00
2023-02-14T23:28:06.663Z,100.00
2023-02-14T23:30:39.795Z,100.00
2023-02-14T23:33:14.307Z,100.00
2023-02-14T23:35:47.382Z,100.00
2023-02-14T23:38:20.546Z,100.00
2023-02-14T23:41:11.013Z,100.00
2023-02-14T23:43:44.042Z,100.00
2023-02-14T23:46:17.039Z,100.00
2023-02-14T23:48:51.505Z,100.00
2023-02-14T23:51:24.838Z,100.00
2023-02-14T23:53:57.947Z,100.00
2023-02-14T23:56:31.212Z,100.00
2023-02-14T23:59:04.803Z,100.00
